Historyczne dane pomiarowe

Dodano dane terminowe – wersja testowa.

Dane z okresu 1951-2019

Wersja bazy: 1.34 [2019-03-16, lista zmian], aktualizacja planowana na 2019-04-15

Dane meteo z obszaru Polski uzyskane na podstawie danych udostępnionych przez Instytut Meteorologii i Gospodarki Wodnej – Państwowy Instytut Badawczy.

 

Wybierz Datę:    

       

TemperaturaWilgotnośćWiatrCiśnienieOpadyŚniegCzas trwania zjawisk
 Stacja t tx tn tng RH VA  wxwx mslp ppp RRR   cm mm wxwxwxwxwxwxwx
1994-08-14 12.0 15.6 10.2- 75.3- 7.0 3.0---- 4.7------------
1994-08-13 15.4 19.1 13.3- 77.5- 8.0 2.0---- 4.4------------
1994-08-12 19.3 26.3 10.9- 65.5- 4.7 1.0---- 2.6------------
1994-08-11 21.0 26.4 15.6- 49.8- 2.7 1.7---- 0.0------------
1994-08-10 19.0 30.0 9.0- 61.3- 4.3 1.0---- 0.0------------
1994-08-09 19.1 26.0 9.7- 58.3- 4.7 1.0---- 0.0------------
1994-08-08 19.5 26.3 10.2- 63.8- 4.0 1.0---- 0.0------------
1994-08-07 20.6 24.9 13.7- 67.8- 1.0 1.3---- 0.0------------
1994-08-06 23.5 29.4 15.3- 65.0- 3.0 1.7---- 0.0------------
1994-08-05 23.7 32.3 15.1- 60.5- 4.7 1.0---- 0.0------------
1994-08-04 20.3 29.1 11.5- 64.5- 5.3 1.0---- 0.0------------
1994-08-03 21.6 25.6 19.3- 72.3- 7.3 2.0---- 0.0------------
1994-08-02 24.6 31.6 20.5- 69.3- 3.3 1.0---- 0.0------------
1994-08-01 28.4 36.4 21.1- 51.3- 2.3 1.0---- 0.0------------
1994-07-31 28.7 36.9 21.9- 47.3- 3.0 1.3---- 0.0------------
1994-07-30 24.8 34.5 18.3- 65.5- 2.7 1.7---- 0.0------------
1994-07-29 27.4 36.0 20.0- 48.0- 4.0 1.0---- 0.0------------
1994-07-28 24.9 36.6 15.4- 58.0- 2.0 1.0---- 0.0------------
1994-07-27 25.8 34.9 17.4- 47.8- 3.7 1.0---- 0.0------------
1994-07-26 26.3 34.4 17.2- 45.3- 3.0 1.0---- 0.0------------
1994-07-25 24.6 32.4 16.7- 44.5- 2.3 1.3---- 0.0------------
1994-07-24 24.1 31.5 15.0- 46.5- 1.3 1.0---- 0.0------------
1994-07-23 21.9 29.7 13.0- 48.5- 5.0 1.0---- 0.0------------
1994-07-22 21.7 29.0 11.4- 43.0- 2.7 1.0---- 0.0------------
1994-07-21 19.6 28.0 8.1- 53.3- 2.7 1.0---- 0.0------------
1994-07-20 17.7 25.7 5.8- 52.8- 2.3 1.0---- 0.0------------
1994-07-19 17.0 23.2 6.5- 54.0- 5.3 2.0---- 0.0------------
1994-07-18 17.2 24.2 5.6- 58.5- 4.3 1.0---- 0.0------------
1994-07-17 18.4 22.4 13.7- 66.8- 4.3 2.0---- 0.0------------
1994-07-16 19.9 25.4 14.9- 67.0- 4.7 1.7---- 0.0------------
1994-07-15 23.7 33.0 18.6- 60.8- 4.0 1.3---- 0.0------------
1994-07-14 26.1 33.1 18.0- 49.3- 5.3 1.0---- 0.0------------
1994-07-13 25.5 32.1 18.5- 44.8- 2.0 1.0---- 0.0------------
1994-07-12 24.1 30.8 12.5- 48.8- 1.0 1.3---- 0.0------------
1994-07-11 20.2 28.8 8.7- 58.5- 1.7 1.3---- 0.0------------
1994-07-10 18.3 26.1 11.2- 66.8- 2.0 1.7---- 0.0------------
1994-07-09 17.3 24.4 12.9- 70.3- 6.3 2.3---- 0.0------------
1994-07-08 16.5 22.2 10.2- 67.0- 7.0 2.0---- 0.0------------
1994-07-07 16.8 24.9 4.4- 57.8- 2.7 1.0---- 0.0------------
1994-07-06 16.1 21.8 7.8- 59.8- 5.3 2.3---- 0.0------------
1994-07-05 17.8 23.5 8.7- 60.8- 6.3 2.0---- 0.0------------
1994-07-04 19.6 26.1 11.8- 49.8- 2.3 1.0---- 0.0------------
1994-07-03 19.4 25.7 10.1- 43.5- 6.3 2.0---- 0.0------------
1994-07-02 19.6 24.1 10.0- 57.0- 1.7 1.0---- 0.0------------
1994-07-01 14.5 20.2 11.0- 70.8- 7.7 1.7---- 0.0------------
1994-06-30 16.4 28.1 14.8- 68.5- 7.0 1.7---- 0.0------------
1994-06-29 23.2 32.0 14.3- 59.8- 4.3 1.0---- 8.2------------
1994-06-28 19.0 26.6 9.3- 68.8- 2.7 1.0---- 0.0------------
1994-06-27 19.2 26.5 13.0- 67.8- 4.0 1.3---- 0.0------------
1994-06-26 23.5 30.3 10.8- 54.0- 3.3 1.0---- 0.0------------
1994-06-25 16.2 23.4 7.9- 54.3- 1.0 1.0---- 0.0------------
1994-06-24 12.5 15.5 9.5- 61.3- 6.7 3.3---- 0.0------------
1994-06-23 12.6 15.6 9.9- 63.8- 7.7 3.3---- 0.0------------
1994-06-22 16.0 19.5 14.0- 83.0- 7.7 2.7---- 8.4------------
1994-06-21 15.3 21.7 8.9- 64.0- 4.7 1.0---- 1.5------------
1994-06-20 12.6 15.0 9.7- 65.0- 6.0 3.7---- 0.0------------
1994-06-19 12.2 14.8 10.1- 90.8- 8.0 3.0---- 5.3------------
1994-06-18 11.0 16.3 4.3- 71.0- 7.3 1.3---- 3.6------------
1994-06-17 8.3 13.1 5.8- 76.0- 7.0 2.0---- 0.0------------
1994-06-16 9.2 14.2 6.6- 76.8- 7.0 2.3---- 4.4------------
258.2 ms

 

Źródłem pochodzenia danych jest Instytut Meteorologii i Gospodarki Wodnej – Państwowy Instytut Badawczy. Dane Instytutu Meteorologii i Gospodarki Wodnej – Państwowego Instytutu Badawczego zostały przetworzone.

Dane źródłowe można odnaleźć na stronie https://dane.imgw.pl